sensor_id;sensor_type;location;lat;lon;timestamp;P1;durP1;ratioP1;P2;durP2;ratioP2
56943;SDS011;42848;42.524;12.052;2023-08-31T00:02:10;9.80;;;4.90;;
56943;SDS011;42848;42.524;12.052;2023-08-31T00:04:36;8.35;;;4.90;;
56943;SDS011;42848;42.524;12.052;2023-08-31T00:07:01;10.18;;;4.93;;
56943;SDS011;42848;42.524;12.052;2023-08-31T00:09:27;7.30;;;5.13;;
56943;SDS011;42848;42.524;12.052;2023-08-31T00:11:54;7.00;;;4.40;;
56943;SDS011;42848;42.524;12.052;2023-08-31T00:14:22;7.93;;;4.72;;
56943;SDS011;42848;42.524;12.052;2023-08-31T00:16:52;9.13;;;4.85;;
56943;SDS011;42848;42.524;12.052;2023-08-31T00:19:17;6.80;;;4.60;;
56943;SDS011;42848;42.524;12.052;2023-08-31T00:21:44;9.35;;;5.03;;
56943;SDS011;42848;42.524;12.052;2023-08-31T00:24:10;6.50;;;4.40;;
56943;SDS011;42848;42.524;12.052;2023-08-31T00:26:36;8.70;;;5.00;;
56943;SDS011;42848;42.524;12.052;2023-08-31T00:29:09;7.38;;;4.63;;
56943;SDS011;42848;42.524;12.052;2023-08-31T00:31:36;7.68;;;4.50;;
56943;SDS011;42848;42.524;12.052;2023-08-31T00:34:02;10.73;;;7.57;;
56943;SDS011;42848;42.524;12.052;2023-08-31T00:36:32;8.43;;;5.07;;
56943;SDS011;42848;42.524;12.052;2023-08-31T00:39:07;9.52;;;5.85;;
56943;SDS011;42848;42.524;12.052;2023-08-31T00:41:36;8.20;;;5.70;;
56943;SDS011;42848;42.524;12.052;2023-08-31T00:44:02;6.55;;;4.03;;
56943;SDS011;42848;42.524;12.052;2023-08-31T00:46:32;7.70;;;3.60;;
56943;SDS011;42848;42.524;12.052;2023-08-31T00:48:59;6.82;;;3.80;;
56943;SDS011;42848;42.524;12.052;2023-08-31T00:51:25;7.50;;;3.80;;
56943;SDS011;42848;42.524;12.052;2023-08-31T00:53:51;7.93;;;3.60;;
56943;SDS011;42848;42.524;12.052;2023-08-31T00:56:19;5.30;;;3.40;;
56943;SDS011;42848;42.524;12.052;2023-08-31T00:58:45;7.20;;;3.70;;
56943;SDS011;42848;42.524;12.052;2023-08-31T01:04:19;5.97;;;3.13;;
56943;SDS011;42848;42.524;12.052;2023-08-31T01:09:38;6.25;;;3.38;;
56943;SDS011;42848;42.524;12.052;2023-08-31T01:12:29;10.88;;;3.67;;
56943;SDS011;42848;42.524;12.052;2023-08-31T01:15:04;7.85;;;3.60;;
56943;SDS011;42848;42.524;12.052;2023-08-31T01:17:44;8.20;;;3.78;;
56943;SDS011;42848;42.524;12.052;2023-08-31T01:20:19;7.95;;;3.88;;
56943;SDS011;42848;42.524;12.052;2023-08-31T01:23:08;7.45;;;4.07;;
56943;SDS011;42848;42.524;12.052;2023-08-31T01:25:38;9.30;;;3.38;;
56943;SDS011;42848;42.524;12.052;2023-08-31T01:28:07;9.15;;;3.60;;
56943;SDS011;42848;42.524;12.052;2023-08-31T01:30:35;7.97;;;3.55;;
56943;SDS011;42848;42.524;12.052;2023-08-31T01:33:01;5.68;;;3.40;;
56943;SDS011;42848;42.524;12.052;2023-08-31T01:35:27;9.10;;;3.38;;
56943;SDS011;42848;42.524;12.052;2023-08-31T01:38:00;9.13;;;3.42;;
56943;SDS011;42848;42.524;12.052;2023-08-31T01:43:06;6.82;;;3.50;;
56943;SDS011;42848;42.524;12.052;2023-08-31T01:45:33;8.70;;;3.60;;
56943;SDS011;42848;42.524;12.052;2023-08-31T01:48:00;8.40;;;3.40;;
56943;SDS011;42848;42.524;12.052;2023-08-31T01:50:26;7.30;;;3.47;;
56943;SDS011;42848;42.524;12.052;2023-08-31T01:52:52;8.02;;;3.50;;
56943;SDS011;42848;42.524;12.052;2023-08-31T01:55:24;5.95;;;3.15;;
56943;SDS011;42848;42.524;12.052;2023-08-31T01:57:50;8.27;;;3.40;;
56943;SDS011;42848;42.524;12.052;2023-08-31T02:00:16;8.30;;;3.40;;
56943;SDS011;42848;42.524;12.052;2023-08-31T02:02:43;9.48;;;3.83;;
56943;SDS011;42848;42.524;12.052;2023-08-31T02:05:09;8.93;;;3.53;;
56943;SDS011;42848;42.524;12.052;2023-08-31T02:07:35;8.45;;;3.17;;
56943;SDS011;42848;42.524;12.052;2023-08-31T02:10:01;9.38;;;3.35;;
56943;SDS011;42848;42.524;12.052;2023-08-31T02:12:27;12.38;;;3.83;;
56943;SDS011;42848;42.524;12.052;2023-08-31T02:14:52;9.38;;;3.40;;
56943;SDS011;42848;42.524;12.052;2023-08-31T02:17:18;9.50;;;3.72;;
56943;SDS011;42848;42.524;12.052;2023-08-31T02:19:44;6.80;;;3.20;;
56943;SDS011;42848;42.524;12.052;2023-08-31T02:22:10;7.75;;;3.78;;
56943;SDS011;42848;42.524;12.052;2023-08-31T02:24:35;11.50;;;3.75;;
56943;SDS011;42848;42.524;12.052;2023-08-31T02:27:01;8.35;;;3.28;;
56943;SDS011;42848;42.524;12.052;2023-08-31T02:29:27;7.57;;;3.20;;
56943;SDS011;42848;42.524;12.052;2023-08-31T02:31:53;7.43;;;3.00;;
56943;SDS011;42848;42.524;12.052;2023-08-31T02:34:18;7.20;;;3.20;;
56943;SDS011;42848;42.524;12.052;2023-08-31T02:36:44;10.90;;;3.25;;
56943;SDS011;42848;42.524;12.052;2023-08-31T02:39:10;9.25;;;3.22;;
56943;SDS011;42848;42.524;12.052;2023-08-31T02:41:36;7.97;;;3.40;;
56943;SDS011;42848;42.524;12.052;2023-08-31T02:44:02;7.20;;;2.85;;
56943;SDS011;42848;42.524;12.052;2023-08-31T02:46:27;10.07;;;3.40;;
56943;SDS011;42848;42.524;12.052;2023-08-31T02:48:53;8.90;;;3.05;;
56943;SDS011;42848;42.524;12.052;2023-08-31T02:51:18;8.75;;;3.03;;
56943;SDS011;42848;42.524;12.052;2023-08-31T02:53:44;8.55;;;3.28;;
56943;SDS011;42848;42.524;12.052;2023-08-31T02:56:10;8.50;;;2.88;;
56943;SDS011;42848;42.524;12.052;2023-08-31T02:58:35;8.75;;;3.30;;
56943;SDS011;42848;42.524;12.052;2023-08-31T03:01:07;7.95;;;3.20;;
56943;SDS011;42848;42.524;12.052;2023-08-31T03:03:37;8.38;;;3.28;;
56943;SDS011;42848;42.524;12.052;2023-08-31T03:06:05;8.48;;;3.28;;
56943;SDS011;42848;42.524;12.052;2023-08-31T03:08:34;11.32;;;3.03;;
56943;SDS011;42848;42.524;12.052;2023-08-31T03:11:02;8.10;;;3.05;;
56943;SDS011;42848;42.524;12.052;2023-08-31T03:13:30;8.75;;;3.05;;
56943;SDS011;42848;42.524;12.052;2023-08-31T03:15:57;7.55;;;3.15;;
56943;SDS011;42848;42.524;12.052;2023-08-31T03:18:23;9.98;;;3.13;;
56943;SDS011;42848;42.524;12.052;2023-08-31T03:20:49;13.52;;;3.30;;
56943;SDS011;42848;42.524;12.052;2023-08-31T03:23:15;9.73;;;3.35;;
56943;SDS011;42848;42.524;12.052;2023-08-31T03:25:41;11.05;;;3.00;;
56943;SDS011;42848;42.524;12.052;2023-08-31T03:28:07;9.30;;;3.25;;
56943;SDS011;42848;42.524;12.052;2023-08-31T03:30:33;7.70;;;2.92;;
56943;SDS011;42848;42.524;12.052;2023-08-31T03:32:59;7.97;;;3.08;;
56943;SDS011;42848;42.524;12.052;2023-08-31T03:35:24;10.65;;;3.28;;
56943;SDS011;42848;42.524;12.052;2023-08-31T03:37:53;7.63;;;3.15;;
56943;SDS011;42848;42.524;12.052;2023-08-31T03:40:19;9.55;;;3.63;;
56943;SDS011;42848;42.524;12.052;2023-08-31T03:42:44;11.25;;;3.58;;
56943;SDS011;42848;42.524;12.052;2023-08-31T03:45:10;9.02;;;3.50;;
56943;SDS011;42848;42.524;12.052;2023-08-31T03:47:37;8.10;;;3.10;;
56943;SDS011;42848;42.524;12.052;2023-08-31T03:50:03;7.03;;;3.00;;
56943;SDS011;42848;42.524;12.052;2023-08-31T03:52:29;9.85;;;3.33;;
56943;SDS011;42848;42.524;12.052;2023-08-31T03:54:55;8.65;;;3.50;;
56943;SDS011;42848;42.524;12.052;2023-08-31T03:57:20;8.27;;;3.10;;
56943;SDS011;42848;42.524;12.052;2023-08-31T03:59:46;9.10;;;3.50;;
56943;SDS011;42848;42.524;12.052;2023-08-31T04:02:12;8.18;;;3.50;;
56943;SDS011;42848;42.524;12.052;2023-08-31T04:04:37;10.57;;;3.40;;
56943;SDS011;42848;42.524;12.052;2023-08-31T04:07:03;10.65;;;3.20;;
56943;SDS011;42848;42.524;12.052;2023-08-31T04:09:29;13.10;;;3.72;;
56943;SDS011;42848;42.524;12.052;2023-08-31T04:11:55;9.95;;;3.42;;
56943;SDS011;42848;42.524;12.052;2023-08-31T04:14:21;8.95;;;3.33;;
56943;SDS011;42848;42.524;12.052;2023-08-31T04:16:46;8.10;;;3.30;;
56943;SDS011;42848;42.524;12.052;2023-08-31T04:19:15;7.13;;;3.25;;
56943;SDS011;42848;42.524;12.052;2023-08-31T04:21:42;9.23;;;3.42;;
56943;SDS011;42848;42.524;12.052;2023-08-31T04:24:08;8.18;;;3.38;;
56943;SDS011;42848;42.524;12.052;2023-08-31T04:26:35;8.88;;;3.55;;
56943;SDS011;42848;42.524;12.052;2023-08-31T04:29:01;8.30;;;3.50;;
56943;SDS011;42848;42.524;12.052;2023-08-31T04:31:28;9.20;;;3.60;;
56943;SDS011;42848;42.524;12.052;2023-08-31T04:33:55;8.50;;;3.60;;
56943;SDS011;42848;42.524;12.052;2023-08-31T04:36:21;9.05;;;3.17;;
56943;SDS011;42848;42.524;12.052;2023-08-31T04:38:47;9.27;;;3.08;;
56943;SDS011;42848;42.524;12.052;2023-08-31T04:41:14;9.43;;;3.10;;
56943;SDS011;42848;42.524;12.052;2023-08-31T04:43:40;10.05;;;3.22;;
56943;SDS011;42848;42.524;12.052;2023-08-31T04:46:06;11.55;;;3.25;;
56943;SDS011;42848;42.524;12.052;2023-08-31T04:48:32;7.55;;;3.30;;
56943;SDS011;42848;42.524;12.052;2023-08-31T04:50:58;10.38;;;3.05;;
56943;SDS011;42848;42.524;12.052;2023-08-31T04:53:24;7.57;;;2.90;;
56943;SDS011;42848;42.524;12.052;2023-08-31T04:55:50;11.02;;;3.58;;
56943;SDS011;42848;42.524;12.052;2023-08-31T04:58:15;9.73;;;3.40;;
56943;SDS011;42848;42.524;12.052;2023-08-31T05:00:41;9.95;;;3.30;;
56943;SDS011;42848;42.524;12.052;2023-08-31T05:03:06;7.63;;;3.28;;
56943;SDS011;42848;42.524;12.052;2023-08-31T05:05:32;8.15;;;3.10;;
56943;SDS011;42848;42.524;12.052;2023-08-31T05:07:58;9.45;;;3.35;;
56943;SDS011;42848;42.524;12.052;2023-08-31T05:10:24;8.05;;;3.20;;
56943;SDS011;42848;42.524;12.052;2023-08-31T05:12:49;9.07;;;3.30;;
56943;SDS011;42848;42.524;12.052;2023-08-31T05:15:15;13.10;;;3.75;;
56943;SDS011;42848;42.524;12.052;2023-08-31T05:17:41;7.00;;;2.72;;
56943;SDS011;42848;42.524;12.052;2023-08-31T05:20:07;9.55;;;3.40;;
56943;SDS011;42848;42.524;12.052;2023-08-31T05:22:35;7.03;;;2.88;;
56943;SDS011;42848;42.524;12.052;2023-08-31T05:25:01;8.73;;;3.25;;
56943;SDS011;42848;42.524;12.052;2023-08-31T05:27:27;9.65;;;3.13;;
56943;SDS011;42848;42.524;12.052;2023-08-31T05:29:52;9.68;;;3.15;;
56943;SDS011;42848;42.524;12.052;2023-08-31T05:32:18;12.15;;;3.58;;
56943;SDS011;42848;42.524;12.052;2023-08-31T05:34:43;8.30;;;2.97;;
56943;SDS011;42848;42.524;12.052;2023-08-31T05:37:09;9.30;;;3.30;;
56943;SDS011;42848;42.524;12.052;2023-08-31T05:39:35;9.60;;;3.25;;
56943;SDS011;42848;42.524;12.052;2023-08-31T05:42:00;7.03;;;2.63;;
56943;SDS011;42848;42.524;12.052;2023-08-31T05:44:26;9.80;;;2.75;;
56943;SDS011;42848;42.524;12.052;2023-08-31T05:46:52;8.93;;;3.20;;
56943;SDS011;42848;42.524;12.052;2023-08-31T05:49:17;7.90;;;2.90;;
56943;SDS011;42848;42.524;12.052;2023-08-31T05:51:43;6.22;;;2.97;;
56943;SDS011;42848;42.524;12.052;2023-08-31T05:54:08;7.75;;;2.92;;
56943;SDS011;42848;42.524;12.052;2023-08-31T05:56:37;6.95;;;2.72;;
56943;SDS011;42848;42.524;12.052;2023-08-31T05:59:05;8.15;;;3.08;;
56943;SDS011;42848;42.524;12.052;2023-08-31T06:01:34;8.70;;;3.47;;
56943;SDS011;42848;42.524;12.052;2023-08-31T06:04:03;9.27;;;3.58;;
56943;SDS011;42848;42.524;12.052;2023-08-31T06:06:30;7.10;;;2.88;;
56943;SDS011;42848;42.524;12.052;2023-08-31T06:08:57;6.40;;;3.05;;
56943;SDS011;42848;42.524;12.052;2023-08-31T06:11:23;7.93;;;2.78;;
56943;SDS011;42848;42.524;12.052;2023-08-31T06:13:49;10.18;;;3.45;;
56943;SDS011;42848;42.524;12.052;2023-08-31T06:16:14;7.22;;;3.08;;
56943;SDS011;42848;42.524;12.052;2023-08-31T06:18:40;10.57;;;3.10;;
56943;SDS011;42848;42.524;12.052;2023-08-31T06:21:05;7.43;;;3.20;;
56943;SDS011;42848;42.524;12.052;2023-08-31T06:23:31;7.90;;;3.05;;
56943;SDS011;42848;42.524;12.052;2023-08-31T06:25:56;7.88;;;3.17;;
56943;SDS011;42848;42.524;12.052;2023-08-31T06:28:22;8.98;;;2.75;;
56943;SDS011;42848;42.524;12.052;2023-08-31T06:30:48;7.28;;;2.88;;
56943;SDS011;42848;42.524;12.052;2023-08-31T06:33:14;7.25;;;2.80;;
56943;SDS011;42848;42.524;12.052;2023-08-31T06:35:40;8.07;;;2.63;;
56943;SDS011;42848;42.524;12.052;2023-08-31T06:38:06;8.57;;;2.88;;
56943;SDS011;42848;42.524;12.052;2023-08-31T06:40:31;7.68;;;2.80;;
56943;SDS011;42848;42.524;12.052;2023-08-31T06:42:58;9.45;;;2.97;;
56943;SDS011;42848;42.524;12.052;2023-08-31T06:45:24;9.15;;;2.90;;
56943;SDS011;42848;42.524;12.052;2023-08-31T06:47:50;11.35;;;3.10;;
56943;SDS011;42848;42.524;12.052;2023-08-31T06:50:15;8.70;;;3.20;;
56943;SDS011;42848;42.524;12.052;2023-08-31T06:52:41;7.75;;;2.80;;
56943;SDS011;42848;42.524;12.052;2023-08-31T06:55:07;8.85;;;3.30;;
56943;SDS011;42848;42.524;12.052;2023-08-31T06:57:33;7.70;;;2.90;;
56943;SDS011;42848;42.524;12.052;2023-08-31T06:59:59;8.80;;;3.30;;
56943;SDS011;42848;42.524;12.052;2023-08-31T07:02:25;11.98;;;3.13;;
56943;SDS011;42848;42.524;12.052;2023-08-31T07:04:52;9.68;;;3.10;;
56943;SDS011;42848;42.524;12.052;2023-08-31T07:07:18;10.77;;;3.25;;
56943;SDS011;42848;42.524;12.052;2023-08-31T07:09:45;6.78;;;3.40;;
56943;SDS011;42848;42.524;12.052;2023-08-31T07:12:12;6.10;;;3.45;;
56943;SDS011;42848;42.524;12.052;2023-08-31T07:14:37;7.55;;;2.95;;
56943;SDS011;42848;42.524;12.052;2023-08-31T07:17:03;8.60;;;3.42;;
56943;SDS011;42848;42.524;12.052;2023-08-31T07:19:29;10.48;;;3.45;;
56943;SDS011;42848;42.524;12.052;2023-08-31T07:21:54;7.05;;;3.08;;
56943;SDS011;42848;42.524;12.052;2023-08-31T07:24:20;8.18;;;3.15;;
56943;SDS011;42848;42.524;12.052;2023-08-31T07:26:47;9.00;;;3.17;;
56943;SDS011;42848;42.524;12.052;2023-08-31T07:29:13;7.15;;;2.95;;
56943;SDS011;42848;42.524;12.052;2023-08-31T07:31:39;8.02;;;3.10;;
56943;SDS011;42848;42.524;12.052;2023-08-31T07:34:05;9.88;;;3.30;;
56943;SDS011;42848;42.524;12.052;2023-08-31T07:36:30;8.15;;;3.30;;
56943;SDS011;42848;42.524;12.052;2023-08-31T07:38:56;10.27;;;3.22;;
56943;SDS011;42848;42.524;12.052;2023-08-31T07:41:22;12.02;;;3.55;;
56943;SDS011;42848;42.524;12.052;2023-08-31T07:43:48;7.57;;;2.80;;
56943;SDS011;42848;42.524;12.052;2023-08-31T07:46:17;6.53;;;3.10;;
56943;SDS011;42848;42.524;12.052;2023-08-31T07:48:43;7.55;;;2.70;;
56943;SDS011;42848;42.524;12.052;2023-08-31T07:51:08;6.45;;;3.00;;
56943;SDS011;42848;42.524;12.052;2023-08-31T07:53:34;8.77;;;2.78;;
56943;SDS011;42848;42.524;12.052;2023-08-31T07:56:00;8.60;;;2.80;;
56943;SDS011;42848;42.524;12.052;2023-08-31T07:58:25;8.70;;;2.80;;
56943;SDS011;42848;42.524;12.052;2023-08-31T08:00:54;8.07;;;2.85;;
56943;SDS011;42848;42.524;12.052;2023-08-31T08:03:21;7.78;;;3.13;;
56943;SDS011;42848;42.524;12.052;2023-08-31T08:05:50;7.45;;;2.92;;
56943;SDS011;42848;42.524;12.052;2023-08-31T08:08:16;7.97;;;3.00;;
56943;SDS011;42848;42.524;12.052;2023-08-31T08:10:41;9.40;;;2.97;;
56943;SDS011;42848;42.524;12.052;2023-08-31T08:13:08;6.40;;;2.70;;
56943;SDS011;42848;42.524;12.052;2023-08-31T08:15:34;7.60;;;3.45;;
56943;SDS011;42848;42.524;12.052;2023-08-31T08:18:00;8.18;;;3.10;;
56943;SDS011;42848;42.524;12.052;2023-08-31T08:20:26;6.68;;;2.83;;
56943;SDS011;42848;42.524;12.052;2023-08-31T08:22:54;7.25;;;3.10;;
56943;SDS011;42848;42.524;12.052;2023-08-31T08:25:21;7.07;;;3.03;;
56943;SDS011;42848;42.524;12.052;2023-08-31T08:27:47;9.75;;;3.40;;
56943;SDS011;42848;42.524;12.052;2023-08-31T08:30:13;6.55;;;3.10;;
56943;SDS011;42848;42.524;12.052;2023-08-31T08:32:41;5.57;;;3.20;;
56943;SDS011;42848;42.524;12.052;2023-08-31T08:35:07;9.48;;;3.47;;
56943;SDS011;42848;42.524;12.052;2023-08-31T08:37:33;7.50;;;3.50;;
56943;SDS011;42848;42.524;12.052;2023-08-31T08:39:59;5.32;;;2.90;;
56943;SDS011;42848;42.524;12.052;2023-08-31T08:42:26;6.10;;;2.92;;
56943;SDS011;42848;42.524;12.052;2023-08-31T08:44:54;4.85;;;2.53;;
56943;SDS011;42848;42.524;12.052;2023-08-31T08:47:22;8.77;;;2.92;;
56943;SDS011;42848;42.524;12.052;2023-08-31T08:49:47;6.07;;;3.22;;
56943;SDS011;42848;42.524;12.052;2023-08-31T08:52:15;7.03;;;3.00;;
56943;SDS011;42848;42.524;12.052;2023-08-31T08:54:41;8.40;;;3.15;;
56943;SDS011;42848;42.524;12.052;2023-08-31T08:57:06;6.82;;;2.90;;
56943;SDS011;42848;42.524;12.052;2023-08-31T08:59:32;6.82;;;3.20;;
56943;SDS011;42848;42.524;12.052;2023-08-31T09:01:57;5.43;;;3.03;;
56943;SDS011;42848;42.524;12.052;2023-08-31T09:04:23;6.97;;;3.47;;
56943;SDS011;42848;42.524;12.052;2023-08-31T09:06:51;7.95;;;3.72;;
56943;SDS011;42848;42.524;12.052;2023-08-31T09:09:17;5.90;;;2.85;;
56943;SDS011;42848;42.524;12.052;2023-08-31T09:11:44;7.13;;;3.10;;
56943;SDS011;42848;42.524;12.052;2023-08-31T09:14:17;6.88;;;3.33;;
56943;SDS011;42848;42.524;12.052;2023-08-31T09:16:44;21.55;;;13.35;;
56943;SDS011;42848;42.524;12.052;2023-08-31T09:19:24;9.13;;;4.80;;
56943;SDS011;42848;42.524;12.052;2023-08-31T09:21:55;6.97;;;3.40;;
56943;SDS011;42848;42.524;12.052;2023-08-31T09:24:22;7.57;;;2.60;;
56943;SDS011;42848;42.524;12.052;2023-08-31T09:26:52;6.22;;;3.00;;
56943;SDS011;42848;42.524;12.052;2023-08-31T09:29:24;7.15;;;2.80;;
56943;SDS011;42848;42.524;12.052;2023-08-31T09:31:50;16.13;;;3.65;;
56943;SDS011;42848;42.524;12.052;2023-08-31T09:34:16;8.68;;;2.70;;
56943;SDS011;42848;42.524;12.052;2023-08-31T09:36:43;5.68;;;2.67;;
56943;SDS011;42848;42.524;12.052;2023-08-31T09:39:09;5.40;;;2.90;;
56943;SDS011;42848;42.524;12.052;2023-08-31T09:41:54;4.95;;;2.70;;
56943;SDS011;42848;42.524;12.052;2023-08-31T09:44:21;5.63;;;3.13;;
56943;SDS011;42848;42.524;12.052;2023-08-31T09:46:48;6.07;;;2.40;;
56943;SDS011;42848;42.524;12.052;2023-08-31T09:49:14;4.32;;;2.42;;
56943;SDS011;42848;42.524;12.052;2023-08-31T09:51:43;4.93;;;2.30;;
56943;SDS011;42848;42.524;12.052;2023-08-31T09:54:14;4.25;;;2.63;;
56943;SDS011;42848;42.524;12.052;2023-08-31T09:56:42;4.28;;;2.28;;
56943;SDS011;42848;42.524;12.052;2023-08-31T09:59:10;6.25;;;2.13;;
56943;SDS011;42848;42.524;12.052;2023-08-31T10:01:36;5.03;;;2.10;;
56943;SDS011;42848;42.524;12.052;2023-08-31T10:04:03;4.68;;;1.98;;
56943;SDS011;42848;42.524;12.052;2023-08-31T10:06:31;3.65;;;2.05;;
56943;SDS011;42848;42.524;12.052;2023-08-31T10:08:58;4.95;;;2.20;;
56943;SDS011;42848;42.524;12.052;2023-08-31T10:11:24;4.00;;;2.30;;
56943;SDS011;42848;42.524;12.052;2023-08-31T10:13:50;5.25;;;3.05;;
56943;SDS011;42848;42.524;12.052;2023-08-31T10:16:19;5.25;;;2.40;;
56943;SDS011;42848;42.524;12.052;2023-08-31T10:18:45;6.03;;;3.00;;
56943;SDS011;42848;42.524;12.052;2023-08-31T10:21:11;10.80;;;6.18;;
56943;SDS011;42848;42.524;12.052;2023-08-31T10:23:43;5.22;;;2.50;;
56943;SDS011;42848;42.524;12.052;2023-08-31T10:26:10;5.75;;;2.20;;
56943;SDS011;42848;42.524;12.052;2023-08-31T10:28:39;5.38;;;2.25;;
56943;SDS011;42848;42.524;12.052;2023-08-31T10:31:09;4.30;;;2.10;;
56943;SDS011;42848;42.524;12.052;2023-08-31T10:36:14;3.97;;;2.05;;
56943;SDS011;42848;42.524;12.052;2023-08-31T10:38:41;4.57;;;1.85;;
56943;SDS011;42848;42.524;12.052;2023-08-31T10:43:49;5.18;;;1.75;;
56943;SDS011;42848;42.524;12.052;2023-08-31T10:51:40;5.35;;;2.40;;
56943;SDS011;42848;42.524;12.052;2023-08-31T10:54:23;4.63;;;2.83;;
56943;SDS011;42848;42.524;12.052;2023-08-31T10:59:16;4.13;;;1.67;;
56943;SDS011;42848;42.524;12.052;2023-08-31T11:01:52;6.85;;;4.07;;
56943;SDS011;42848;42.524;12.052;2023-08-31T11:04:26;4.32;;;1.67;;
56943;SDS011;42848;42.524;12.052;2023-08-31T11:09:38;4.25;;;2.10;;
56943;SDS011;42848;42.524;12.052;2023-08-31T11:12:04;4.28;;;2.38;;
56943;SDS011;42848;42.524;12.052;2023-08-31T11:14:30;5.22;;;3.20;;
56943;SDS011;42848;42.524;12.052;2023-08-31T11:16:56;4.00;;;1.92;;
56943;SDS011;42848;42.524;12.052;2023-08-31T11:19:22;3.33;;;1.55;;
56943;SDS011;42848;42.524;12.052;2023-08-31T11:21:47;4.43;;;3.03;;
56943;SDS011;42848;42.524;12.052;2023-08-31T11:24:13;3.22;;;1.90;;
56943;SDS011;42848;42.524;12.052;2023-08-31T11:26:41;3.15;;;1.60;;
56943;SDS011;42848;42.524;12.052;2023-08-31T11:29:07;4.25;;;1.77;;
56943;SDS011;42848;42.524;12.052;2023-08-31T11:31:37;3.20;;;2.30;;
56943;SDS011;42848;42.524;12.052;2023-08-31T11:34:05;4.72;;;1.75;;
56943;SDS011;42848;42.524;12.052;2023-08-31T11:36:32;4.00;;;1.73;;
56943;SDS011;42848;42.524;12.052;2023-08-31T11:38:58;2.92;;;1.63;;
56943;SDS011;42848;42.524;12.052;2023-08-31T11:41:25;3.38;;;1.63;;
56943;SDS011;42848;42.524;12.052;2023-08-31T11:43:56;3.13;;;1.50;;
56943;SDS011;42848;42.524;12.052;2023-08-31T11:46:21;3.03;;;1.63;;
56943;SDS011;42848;42.524;12.052;2023-08-31T11:48:47;5.07;;;1.83;;
56943;SDS011;42848;42.524;12.052;2023-08-31T11:51:13;3.58;;;1.52;;
56943;SDS011;42848;42.524;12.052;2023-08-31T11:53:39;4.28;;;2.17;;
56943;SDS011;42848;42.524;12.052;2023-08-31T11:56:05;2.58;;;1.30;;
56943;SDS011;42848;42.524;12.052;2023-08-31T11:58:30;3.88;;;2.00;;
56943;SDS011;42848;42.524;12.052;2023-08-31T12:00:56;2.53;;;1.40;;
56943;SDS011;42848;42.524;12.052;2023-08-31T12:03:23;4.35;;;2.00;;
56943;SDS011;42848;42.524;12.052;2023-08-31T12:05:51;7.22;;;4.05;;
56943;SDS011;42848;42.524;12.052;2023-08-31T12:08:26;3.60;;;1.50;;
56943;SDS011;42848;42.524;12.052;2023-08-31T12:10:53;3.65;;;1.60;;
56943;SDS011;42848;42.524;12.052;2023-08-31T12:13:21;4.35;;;1.48;;
56943;SDS011;42848;42.524;12.052;2023-08-31T12:15:54;2.10;;;1.23;;
56943;SDS011;42848;42.524;12.052;2023-08-31T12:18:21;3.13;;;1.80;;
56943;SDS011;42848;42.524;12.052;2023-08-31T12:20:47;3.80;;;2.00;;
56943;SDS011;42848;42.524;12.052;2023-08-31T12:23:16;3.17;;;1.30;;
56943;SDS011;42848;42.524;12.052;2023-08-31T12:25:49;5.15;;;2.40;;
56943;SDS011;42848;42.524;12.052;2023-08-31T12:28:19;3.45;;;1.40;;
56943;SDS011;42848;42.524;12.052;2023-08-31T12:30:51;4.22;;;2.40;;
56943;SDS011;42848;42.524;12.052;2023-08-31T12:33:19;4.95;;;2.33;;
56943;SDS011;42848;42.524;12.052;2023-08-31T12:35:45;2.70;;;1.10;;
56943;SDS011;42848;42.524;12.052;2023-08-31T12:38:11;3.28;;;1.30;;
56943;SDS011;42848;42.524;12.052;2023-08-31T12:40:38;2.88;;;1.15;;
56943;SDS011;42848;42.524;12.052;2023-08-31T12:43:04;2.60;;;1.35;;
56943;SDS011;42848;42.524;12.052;2023-08-31T12:45:31;4.13;;;1.63;;
56943;SDS011;42848;42.524;12.052;2023-08-31T12:47:57;2.72;;;1.00;;
56943;SDS011;42848;42.524;12.052;2023-08-31T12:50:23;2.13;;;1.08;;
56943;SDS011;42848;42.524;12.052;2023-08-31T12:52:49;1.90;;;0.90;;
56943;SDS011;42848;42.524;12.052;2023-08-31T12:55:14;2.30;;;1.10;;
56943;SDS011;42848;42.524;12.052;2023-08-31T12:57:41;3.75;;;1.00;;
56943;SDS011;42848;42.524;12.052;2023-08-31T13:00:08;3.97;;;1.00;;
56943;SDS011;42848;42.524;12.052;2023-08-31T13:02:39;3.13;;;1.20;;
56943;SDS011;42848;42.524;12.052;2023-08-31T13:05:06;3.15;;;1.20;;
56943;SDS011;42848;42.524;12.052;2023-08-31T13:07:34;4.80;;;1.10;;
56943;SDS011;42848;42.524;12.052;2023-08-31T13:10:00;4.47;;;1.13;;
56943;SDS011;42848;42.524;12.052;2023-08-31T13:12:29;2.78;;;1.20;;
56943;SDS011;42848;42.524;12.052;2023-08-31T13:14:58;2.92;;;1.20;;
56943;SDS011;42848;42.524;12.052;2023-08-31T13:17:24;2.95;;;1.02;;
56943;SDS011;42848;42.524;12.052;2023-08-31T13:19:55;3.60;;;1.17;;
56943;SDS011;42848;42.524;12.052;2023-08-31T13:22:22;4.18;;;1.10;;
56943;SDS011;42848;42.524;12.052;2023-08-31T13:24:49;2.70;;;1.30;;
56943;SDS011;42848;42.524;12.052;2023-08-31T13:27:17;3.72;;;1.40;;
56943;SDS011;42848;42.524;12.052;2023-08-31T13:29:43;2.00;;;1.20;;
56943;SDS011;42848;42.524;12.052;2023-08-31T13:32:09;2.75;;;1.17;;
56943;SDS011;42848;42.524;12.052;2023-08-31T13:34:35;2.97;;;1.10;;
56943;SDS011;42848;42.524;12.052;2023-08-31T13:37:04;2.28;;;1.10;;
56943;SDS011;42848;42.524;12.052;2023-08-31T13:39:30;2.65;;;1.20;;
56943;SDS011;42848;42.524;12.052;2023-08-31T13:41:59;2.03;;;1.10;;
56943;SDS011;42848;42.524;12.052;2023-08-31T13:44:27;3.40;;;1.40;;
56943;SDS011;42848;42.524;12.052;2023-08-31T13:46:52;3.05;;;1.10;;
56943;SDS011;42848;42.524;12.052;2023-08-31T13:49:18;2.70;;;1.23;;
56943;SDS011;42848;42.524;12.052;2023-08-31T13:51:43;3.05;;;1.30;;
56943;SDS011;42848;42.524;12.052;2023-08-31T13:54:10;2.80;;;1.20;;
56943;SDS011;42848;42.524;12.052;2023-08-31T13:56:36;2.78;;;1.58;;
56943;SDS011;42848;42.524;12.052;2023-08-31T13:59:02;5.50;;;2.60;;
56943;SDS011;42848;42.524;12.052;2023-08-31T14:01:29;4.25;;;1.30;;
56943;SDS011;42848;42.524;12.052;2023-08-31T14:03:55;2.72;;;1.30;;
56943;SDS011;42848;42.524;12.052;2023-08-31T14:06:20;2.03;;;1.10;;
56943;SDS011;42848;42.524;12.052;2023-08-31T14:08:46;2.05;;;1.00;;
56943;SDS011;42848;42.524;12.052;2023-08-31T14:11:12;6.53;;;1.48;;
56943;SDS011;42848;42.524;12.052;2023-08-31T14:13:38;3.55;;;1.13;;
56943;SDS011;42848;42.524;12.052;2023-08-31T14:16:04;4.15;;;1.40;;
56943;SDS011;42848;42.524;12.052;2023-08-31T14:18:30;4.05;;;1.67;;
56943;SDS011;42848;42.524;12.052;2023-08-31T14:20:59;3.05;;;1.65;;
56943;SDS011;42848;42.524;12.052;2023-08-31T14:23:26;6.13;;;1.88;;
56943;SDS011;42848;42.524;12.052;2023-08-31T14:25:52;4.25;;;1.83;;
56943;SDS011;42848;42.524;12.052;2023-08-31T14:28:18;4.22;;;2.00;;
56943;SDS011;42848;42.524;12.052;2023-08-31T14:30:43;6.68;;;1.90;;
56943;SDS011;42848;42.524;12.052;2023-08-31T14:33:09;6.05;;;2.38;;
56943;SDS011;42848;42.524;12.052;2023-08-31T14:35:37;5.70;;;2.40;;
56943;SDS011;42848;42.524;12.052;2023-08-31T14:38:04;5.13;;;2.15;;
56943;SDS011;42848;42.524;12.052;2023-08-31T14:40:30;5.45;;;2.00;;
56943;SDS011;42848;42.524;12.052;2023-08-31T14:42:59;5.88;;;2.20;;
56943;SDS011;42848;42.524;12.052;2023-08-31T14:45:25;4.00;;;2.03;;
56943;SDS011;42848;42.524;12.052;2023-08-31T14:47:51;4.38;;;2.00;;
56943;SDS011;42848;42.524;12.052;2023-08-31T14:50:16;3.63;;;1.77;;
56943;SDS011;42848;42.524;12.052;2023-08-31T14:52:42;4.93;;;2.00;;
56943;SDS011;42848;42.524;12.052;2023-08-31T14:55:07;4.82;;;1.80;;
56943;SDS011;42848;42.524;12.052;2023-08-31T14:57:33;4.40;;;2.30;;